Time;durP1;ratioP1;P1;durP2;ratioP2;P2;SDS_P1;SDS_P2;PMS_P1;PMS_P2;Temp;Humidity;BMP_temperature;BMP_pressure;BME280_temperature;BME280_humidity;BME280_pressure;Samples;Min_cycle;Max_cycle;Signal;HPM_P1;HPM_P2
2021/06/26 00:00:05;;;;;;;0.15;0.15;;;;;;;;;;4896361;29;20055;-87
2021/06/26 00:02:31;;;;;;;0.10;0.10;;;;;;;;;;4896336;29;20048;-87
2021/06/26 00:04:57;;;;;;;0.10;0.10;;;;;;;;;;4880814;29;20040;-88
2021/06/26 00:07:23;;;;;;;0.20;0.20;;;;;;;;;;4896291;29;20049;-87
2021/06/26 00:09:49;;;;;;;0.20;0.20;;;;;;;;;;4880715;29;20052;-88
2021/06/26 00:12:16;;;;;;;0.20;0.20;;;;;;;;;;4896137;29;20073;-87
2021/06/26 00:14:42;;;;;;;0.10;0.10;;;;;;;;;;4896167;29;20047;-87
2021/06/26 00:17:08;;;;;;;0.10;0.10;;;;;;;;;;4880435;29;20040;-87
2021/06/26 00:19:35;;;;;;;0.10;0.10;;;;;;;;;;4895986;29;20053;-87
2021/06/26 00:22:02;;;;;;;0.10;0.10;;;;;;;;;;4880742;29;20060;-87
2021/06/26 00:24:28;;;;;;;0.10;0.10;;;;;;;;;;4897180;29;20037;-87
2021/06/26 00:26:54;;;;;;;0.10;0.10;;;;;;;;;;4896003;29;20049;-87
2021/06/26 00:29:20;;;;;;;0.10;0.10;;;;;;;;;;4895962;29;20041;-88
2021/06/26 00:31:46;;;;;;;0.30;0.30;;;;;;;;;;4897146;29;20067;-87
2021/06/26 00:34:13;;;;;;;0.28;0.28;;;;;;;;;;4895926;29;20483;-87
2021/06/26 00:36:39;;;;;;;0.20;0.20;;;;;;;;;;4896915;29;20411;-87
2021/06/26 00:39:05;;;;;;;0.10;0.10;;;;;;;;;;4895862;29;20128;-87
2021/06/26 00:41:31;;;;;;;0.10;0.10;;;;;;;;;;4885311;29;20047;-87
2021/06/26 00:43:57;;;;;;;0.10;0.10;;;;;;;;;;4886614;29;20044;-87
2021/06/26 00:46:23;;;;;;;0.10;0.10;;;;;;;;;;4902157;29;20463;-87
2021/06/26 00:48:49;;;;;;;0.10;0.10;;;;;;;;;;4902143;29;20076;-87
2021/06/26 00:51:15;;;;;;;0.20;0.20;;;;;;;;;;4886379;29;20048;-87
2021/06/26 00:53:41;;;;;;;0.20;0.20;;;;;;;;;;4903221;29;20423;-87
2021/06/26 00:56:08;;;;;;;0.10;0.10;;;;;;;;;;4886359;29;20040;-86
2021/06/26 00:58:34;;;;;;;0.32;0.32;;;;;;;;;;4886424;29;20048;-86
2021/06/26 01:01:02;;;;;;;0.10;0.10;;;;;;;;;;4903111;29;20041;-87
2021/06/26 01:03:28;;;;;;;0.10;0.10;;;;;;;;;;4886614;29;20040;-87
2021/06/26 01:05:54;;;;;;;0.10;0.10;;;;;;;;;;4903371;29;20072;-87
2021/06/26 01:08:21;;;;;;;0.10;0.10;;;;;;;;;;4901845;29;20081;-87
2021/06/26 01:10:47;;;;;;;0.10;0.10;;;;;;;;;;4901791;29;20045;-87
2021/06/26 01:13:13;;;;;;;0.10;0.10;;;;;;;;;;4886338;29;20051;-86
2021/06/26 01:15:39;;;;;;;0.10;0.10;;;;;;;;;;4901836;29;20491;-87
2021/06/26 01:18:05;;;;;;;0.10;0.10;;;;;;;;;;4901745;29;20399;-86
2021/06/26 01:20:31;;;;;;;0.10;0.10;;;;;;;;;;4901665;29;20384;-85
2021/06/26 01:22:59;;;;;;;0.20;0.20;;;;;;;;;;4902007;29;20044;-87
2021/06/26 01:25:25;;;;;;;0.20;0.20;;;;;;;;;;4886252;29;20491;-86
2021/06/26 01:27:52;;;;;;;0.10;0.10;;;;;;;;;;4901668;29;20127;-86
2021/06/26 01:30:19;;;;;;;0.10;0.10;;;;;;;;;;4886154;29;20100;-86
2021/06/26 01:32:45;;;;;;;0.20;0.20;;;;;;;;;;4902892;29;20112;-86
2021/06/26 01:35:11;;;;;;;0.32;0.32;;;;;;;;;;4901781;29;20132;-86
2021/06/26 01:37:40;;;;;;;0.10;0.10;;;;;;;;;;4901565;29;20036;-86
2021/06/26 01:40:07;;;;;;;0.10;0.10;;;;;;;;;;4901559;29;20036;-86
2021/06/26 01:42:34;;;;;;;0.10;0.10;;;;;;;;;;4901546;29;20442;-86
2021/06/26 01:45:00;;;;;;;0.20;0.20;;;;;;;;;;4901735;29;20048;-86
2021/06/26 01:47:26;;;;;;;0.20;0.20;;;;;;;;;;4902927;29;20044;-86
2021/06/26 01:49:52;;;;;;;0.10;0.10;;;;;;;;;;4901602;29;20509;-86
2021/06/26 01:52:18;;;;;;;0.20;0.20;;;;;;;;;;4883211;29;20048;-86
2021/06/26 01:54:44;;;;;;;0.10;0.10;;;;;;;;;;4899730;29;20041;-85
2021/06/26 01:57:10;;;;;;;0.10;0.10;;;;;;;;;;4882887;29;20483;-86
2021/06/26 01:59:39;;;;;;;0.20;0.20;;;;;;;;;;4898476;29;20072;-86
2021/06/26 02:02:05;;;;;;;0.10;0.10;;;;;;;;;;4898462;29;20044;-86
2021/06/26 02:04:32;;;;;;;0.20;0.20;;;;;;;;;;4898593;29;20464;-85
2021/06/26 02:06:58;;;;;;;0.10;0.10;;;;;;;;;;4899482;29;20080;-86
2021/06/26 02:09:24;;;;;;;0.10;0.10;;;;;;;;;;4899484;29;20048;-85
2021/06/26 02:11:50;;;;;;;0.10;0.10;;;;;;;;;;4898389;29;20149;-86
2021/06/26 02:14:16;;;;;;;0.10;0.10;;;;;;;;;;4898274;29;20048;-86
2021/06/26 02:16:42;;;;;;;0.10;0.10;;;;;;;;;;4882619;29;20036;-86
2021/06/26 02:19:08;;;;;;;0.35;0.35;;;;;;;;;;4899134;29;20048;-85
2021/06/26 02:21:35;;;;;;;0.10;0.10;;;;;;;;;;4898012;29;20044;-85
2021/06/26 02:24:02;;;;;;;0.10;0.10;;;;;;;;;;4898229;29;20052;-85
2021/06/26 02:26:28;;;;;;;0.10;0.10;;;;;;;;;;4898073;29;20036;-85
2021/06/26 02:28:55;;;;;;;0.10;0.10;;;;;;;;;;4897964;29;20045;-86
2021/06/26 02:31:21;;;;;;;0.10;0.10;;;;;;;;;;4882373;29;20045;-85
2021/06/26 02:33:47;;;;;;;0.28;0.28;;;;;;;;;;4897993;29;20092;-85
2021/06/26 02:36:13;;;;;;;0.10;0.10;;;;;;;;;;4897686;29;20048;-85
2021/06/26 02:38:39;;;;;;;0.20;0.20;;;;;;;;;;4897663;29;20037;-85
2021/06/26 02:41:05;;;;;;;0.10;0.10;;;;;;;;;;4897811;29;20052;-85
2021/06/26 02:43:31;;;;;;;0.80;0.22;;;;;;;;;;4882302;29;20487;-85
2021/06/26 02:45:57;;;;;;;0.10;0.10;;;;;;;;;;4898910;29;20041;-85
2021/06/26 02:48:23;;;;;;;0.10;0.10;;;;;;;;;;4897604;29;20053;-86
2021/06/26 02:50:49;;;;;;;0.10;0.10;;;;;;;;;;4897530;29;20499;-85
2021/06/26 02:53:15;;;;;;;0.10;0.10;;;;;;;;;;4898796;29;20443;-85
2021/06/26 02:55:41;;;;;;;0.10;0.10;;;;;;;;;;4897492;29;20040;-85
2021/06/26 02:58:07;;;;;;;0.10;0.10;;;;;;;;;;4897394;29;20052;-85
2021/06/26 03:00:33;;;;;;;0.10;0.10;;;;;;;;;;4897571;29;20506;-85
2021/06/26 03:02:59;;;;;;;0.10;0.10;;;;;;;;;;4898401;29;20044;-85
2021/06/26 03:05:26;;;;;;;0.13;0.13;;;;;;;;;;4897140;29;20502;-85
2021/06/26 03:07:52;;;;;;;0.20;0.20;;;;;;;;;;4897989;29;20048;-86
2021/06/26 03:10:18;;;;;;;0.20;0.20;;;;;;;;;;4897017;29;20072;-86
2021/06/26 03:12:44;;;;;;;0.50;0.50;;;;;;;;;;4881292;29;20048;-86
2021/06/26 03:15:11;;;;;;;0.22;0.22;;;;;;;;;;4898209;29;20044;-86
2021/06/26 03:17:37;;;;;;;0.22;0.22;;;;;;;;;;4897981;29;20048;-86
2021/06/26 03:20:05;;;;;;;0.10;0.10;;;;;;;;;;4896595;29;20502;-86
2021/06/26 03:22:31;;;;;;;0.10;0.10;;;;;;;;;;4881361;29;20044;-87
2021/06/26 03:25:01;;;;;;;0.10;0.10;;;;;;;;;;4896899;29;20056;-87
2021/06/26 03:27:27;;;;;;;0.20;0.20;;;;;;;;;;4896757;29;20142;-87
2021/06/26 03:29:53;;;;;;;0.10;0.10;;;;;;;;;;4896583;29;20498;-86
2021/06/26 03:32:19;;;;;;;0.10;0.10;;;;;;;;;;4896427;29;20044;-87
2021/06/26 03:34:47;;;;;;;1.65;0.50;;;;;;;;;;4881223;29;20051;-86
2021/06/26 03:37:13;;;;;;;0.10;0.10;;;;;;;;;;4880873;29;20473;-87
2021/06/26 03:39:39;;;;;;;0.10;0.10;;;;;;;;;;4896563;29;20407;-87
2021/06/26 03:42:06;;;;;;;0.10;0.10;;;;;;;;;;4896487;29;20128;-86
2021/06/26 03:44:32;;;;;;;0.10;0.10;;;;;;;;;;4897508;29;20044;-86
2021/06/26 03:46:59;;;;;;;0.20;0.20;;;;;;;;;;4896082;29;20048;-86
2021/06/26 03:49:25;;;;;;;0.20;0.20;;;;;;;;;;4896176;29;20047;-86
2021/06/26 03:51:51;;;;;;;0.20;0.20;;;;;;;;;;4897357;29;20063;-86
2021/06/26 03:54:17;;;;;;;0.10;0.10;;;;;;;;;;4897254;29;20483;-86
2021/06/26 03:56:43;;;;;;;0.10;0.10;;;;;;;;;;4880507;29;20097;-85
2021/06/26 03:59:09;;;;;;;0.10;0.10;;;;;;;;;;4897226;29;20141;-85
2021/06/26 04:01:35;;;;;;;0.25;0.25;;;;;;;;;;4896001;29;20470;-85
2021/06/26 04:04:02;;;;;;;0.10;0.10;;;;;;;;;;4897206;29;20044;-85
2021/06/26 04:06:28;;;;;;;0.10;0.10;;;;;;;;;;4895843;29;20396;-85
2021/06/26 04:08:54;;;;;;;0.10;0.10;;;;;;;;;;4895842;29;20365;-85
2021/06/26 04:11:40;;;;;;;0.10;0.10;;;;;;;;;;4896394;29;20084;-86
2021/06/26 04:14:06;;;;;;;0.30;0.30;;;;;;;;;;4896011;29;20037;-87
2021/06/26 04:16:32;;;;;;;0.10;0.10;;;;;;;;;;4895111;29;20041;-87
2021/06/26 04:18:58;;;;;;;0.20;0.20;;;;;;;;;;4895501;29;20136;-87
2021/06/26 04:21:24;;;;;;;0.10;0.10;;;;;;;;;;4880272;29;20099;-87
2021/06/26 04:23:50;;;;;;;0.13;0.13;;;;;;;;;;4880364;29;20115;-87
2021/06/26 04:26:17;;;;;;;0.10;0.10;;;;;;;;;;4895936;29;20124;-86
2021/06/26 04:28:43;;;;;;;0.10;0.10;;;;;;;;;;4895585;29;20281;-86
2021/06/26 04:31:09;;;;;;;0.20;0.20;;;;;;;;;;4880215;29;20499;-86
2021/06/26 04:33:35;;;;;;;0.10;0.10;;;;;;;;;;4895529;29;20223;-86
2021/06/26 04:36:01;;;;;;;0.10;0.10;;;;;;;;;;4895586;29;20091;-86
2021/06/26 04:38:27;;;;;;;0.20;0.20;;;;;;;;;;4895383;29;20527;-87
2021/06/26 04:40:53;;;;;;;0.10;0.10;;;;;;;;;;4895536;29;20074;-86
2021/06/26 04:43:20;;;;;;;0.10;0.10;;;;;;;;;;4879983;29;20044;-85
2021/06/26 04:45:46;;;;;;;0.10;0.10;;;;;;;;;;4895441;29;20048;-85
2021/06/26 04:48:12;;;;;;;0.17;0.17;;;;;;;;;;4895385;29;20116;-85
2021/06/26 04:50:38;;;;;;;0.10;0.10;;;;;;;;;;4895617;29;20097;-85
2021/06/26 04:53:04;;;;;;;0.10;0.10;;;;;;;;;;4896630;29;20044;-85
2021/06/26 04:55:30;;;;;;;0.10;0.10;;;;;;;;;;4895404;29;20062;-85
2021/06/26 04:57:56;;;;;;;0.10;0.10;;;;;;;;;;4895103;29;20561;-85
2021/06/26 05:00:22;;;;;;;0.25;0.25;;;;;;;;;;4895395;29;20132;-85
2021/06/26 05:02:48;;;;;;;0.20;0.20;;;;;;;;;;4896531;29;20119;-85
2021/06/26 05:05:14;;;;;;;0.20;0.20;;;;;;;;;;4895341;29;20064;-85
2021/06/26 05:07:40;;;;;;;0.20;0.20;;;;;;;;;;4896505;29;20404;-85
2021/06/26 05:10:07;;;;;;;0.13;0.13;;;;;;;;;;4896430;29;20036;-85
2021/06/26 05:12:33;;;;;;;0.10;0.10;;;;;;;;;;4895220;29;20043;-85
2021/06/26 05:14:59;;;;;;;0.10;0.10;;;;;;;;;;4895271;29;20479;-85
2021/06/26 05:17:25;;;;;;;0.10;0.10;;;;;;;;;;4879714;29;20053;-86
2021/06/26 05:19:51;;;;;;;0.30;0.30;;;;;;;;;;4879490;29;20084;-87
2021/06/26 05:22:17;;;;;;;0.10;0.10;;;;;;;;;;4879979;29;20075;-92
2021/06/26 05:24:43;;;;;;;0.10;0.10;;;;;;;;;;4895488;29;20041;-87
2021/06/26 05:27:10;;;;;;;0.30;0.30;;;;;;;;;;4897522;29;20112;-87
2021/06/26 05:29:42;;;;;;;0.30;0.30;;;;;;;;;;4883077;29;20068;-88
2021/06/26 05:32:08;;;;;;;0.20;0.20;;;;;;;;;;4883887;29;20048;-88
2021/06/26 05:34:34;;;;;;;0.10;0.10;;;;;;;;;;4900137;29;20043;-90
2021/06/26 05:37:00;;;;;;;0.20;0.20;;;;;;;;;;4883613;29;20119;-90
2021/06/26 05:39:26;;;;;;;0.20;0.20;;;;;;;;;;4883788;29;20044;-93
2021/06/26 05:41:52;;;;;;;0.10;0.10;;;;;;;;;;4883641;29;20052;-92
2021/06/26 05:44:19;;;;;;;0.10;0.10;;;;;;;;;;4884127;29;20053;-92
2021/06/26 05:46:45;;;;;;;0.10;0.10;;;;;;;;;;4899470;29;20486;-91
2021/06/26 05:49:11;;;;;;;0.20;0.20;;;;;;;;;;4884123;29;20117;-91
2021/06/26 05:51:37;;;;;;;0.20;0.20;;;;;;;;;;4883669;29;20044;-92
2021/06/26 05:54:03;;;;;;;0.20;0.20;;;;;;;;;;4898945;29;20067;-92
2021/06/26 05:56:31;;;;;;;0.10;0.10;;;;;;;;;;4899115;29;20047;-91
2021/06/26 05:58:58;;;;;;;0.10;0.10;;;;;;;;;;4899133;29;20068;-90
2021/06/26 06:01:24;;;;;;;0.20;0.20;;;;;;;;;;4883537;29;20044;-92
2021/06/26 06:03:52;;;;;;;0.10;0.10;;;;;;;;;;4899221;29;20051;-93
2021/06/26 06:06:19;;;;;;;0.10;0.10;;;;;;;;;;4883351;29;20060;-91
2021/06/26 06:08:45;;;;;;;0.10;0.10;;;;;;;;;;4898859;29;20077;-89
2021/06/26 06:11:11;;;;;;;0.20;0.20;;;;;;;;;;4900112;29;20123;-92
2021/06/26 06:13:37;;;;;;;0.10;0.10;;;;;;;;;;4883413;29;20455;-92
2021/06/26 06:16:03;;;;;;;0.10;0.10;;;;;;;;;;4883000;29;20388;-89
2021/06/26 06:18:29;;;;;;;0.10;0.10;;;;;;;;;;4881971;29;20036;-92
2021/06/26 06:20:55;;;;;;;0.10;0.10;;;;;;;;;;4883349;29;20042;-92
2021/06/26 06:23:21;;;;;;;0.20;0.20;;;;;;;;;;4899062;29;20065;-92
2021/06/26 06:25:47;;;;;;;0.10;0.10;;;;;;;;;;4883191;29;20039;-91
2021/06/26 06:28:15;;;;;;;0.10;0.10;;;;;;;;;;4883391;29;20442;-93
2021/06/26 06:30:41;;;;;;;0.10;0.10;;;;;;;;;;4882899;29;20048;-92
2021/06/26 06:33:07;;;;;;;0.10;0.10;;;;;;;;;;4898480;29;20037;-92
2021/06/26 06:35:33;;;;;;;0.10;0.10;;;;;;;;;;4882703;29;20044;-92
2021/06/26 06:38:00;;;;;;;0.10;0.10;;;;;;;;;;4882067;29;20483;-90
2021/06/26 06:40:26;;;;;;;0.10;0.10;;;;;;;;;;4898355;29;20151;-89
2021/06/26 06:42:52;;;;;;;0.15;0.15;;;;;;;;;;4884917;29;20055;-90
2021/06/26 06:45:18;;;;;;;0.32;0.20;;;;;;;;;;4883454;29;20060;-89
2021/06/26 06:47:44;;;;;;;0.20;0.20;;;;;;;;;;4897278;29;20368;-89
2021/06/26 06:50:10;;;;;;;0.13;0.13;;;;;;;;;;4882112;29;20059;-89
2021/06/26 06:52:36;;;;;;;0.20;0.20;;;;;;;;;;4897534;29;20064;-89
2021/06/26 06:55:03;;;;;;;0.30;0.30;;;;;;;;;;4883470;29;20047;-89
2021/06/26 06:57:29;;;;;;;0.20;0.20;;;;;;;;;;4911049;29;20115;-89
2021/06/26 06:59:55;;;;;;;0.17;0.17;;;;;;;;;;4895540;29;20044;-88
2021/06/26 07:02:21;;;;;;;0.10;0.10;;;;;;;;;;4911015;29;20128;-88
2021/06/26 07:04:47;;;;;;;0.20;0.20;;;;;;;;;;4910734;29;20209;-88
2021/06/26 07:07:13;;;;;;;0.38;0.30;;;;;;;;;;4881516;29;20107;-88
2021/06/26 07:09:39;;;;;;;0.30;0.30;;;;;;;;;;4897235;29;20051;-88
2021/06/26 07:12:05;;;;;;;0.20;0.20;;;;;;;;;;4896975;29;20036;-87
2021/06/26 07:14:31;;;;;;;0.20;0.20;;;;;;;;;;4898022;29;20037;-88
2021/06/26 07:16:57;;;;;;;0.22;0.22;;;;;;;;;;4896657;29;20036;-88
2021/06/26 07:19:23;;;;;;;0.50;0.50;;;;;;;;;;4896441;29;20124;-87
2021/06/26 07:21:49;;;;;;;0.40;0.40;;;;;;;;;;4881436;29;20092;-88
2021/06/26 07:24:15;;;;;;;0.20;0.20;;;;;;;;;;4896728;29;20044;-88
2021/06/26 07:26:41;;;;;;;0.20;0.20;;;;;;;;;;4896388;29;20048;-88
2021/06/26 07:29:08;;;;;;;0.30;0.30;;;;;;;;;;4896567;29;20060;-88
2021/06/26 07:31:34;;;;;;;0.10;0.10;;;;;;;;;;4896482;29;20072;-88
2021/06/26 07:34:00;;;;;;;0.20;0.20;;;;;;;;;;4896382;29;20474;-89
2021/06/26 07:36:26;;;;;;;0.10;0.10;;;;;;;;;;4897466;29;20072;-88
2021/06/26 07:38:52;;;;;;;0.10;0.10;;;;;;;;;;4880594;29;20088;-88
2021/06/26 07:41:18;;;;;;;0.20;0.20;;;;;;;;;;4880805;29;20048;-88
2021/06/26 07:43:44;;;;;;;0.60;0.60;;;;;;;;;;4896162;29;20045;-89
2021/06/26 07:46:10;;;;;;;1.10;0.47;;;;;;;;;;4896383;29;20051;-89
2021/06/26 07:48:36;;;;;;;0.28;0.28;;;;;;;;;;4896031;29;20044;-89
2021/06/26 07:51:02;;;;;;;0.20;0.20;;;;;;;;;;4879930;29;20572;-89
2021/06/26 07:53:28;;;;;;;0.30;0.30;;;;;;;;;;4897320;29;20036;-89
2021/06/26 07:55:54;;;;;;;0.25;0.25;;;;;;;;;;4880787;29;20041;-89
2021/06/26 07:58:24;;;;;;;0.20;0.20;;;;;;;;;;4896136;29;20502;-88
2021/06/26 08:00:50;;;;;;;0.10;0.10;;;;;;;;;;4896389;29;20128;-88
2021/06/26 08:03:17;;;;;;;0.85;0.20;;;;;;;;;;4896112;29;20088;-89
2021/06/26 08:05:43;;;;;;;1.17;0.35;;;;;;;;;;4896421;29;20450;-88
2021/06/26 08:08:09;;;;;;;0.20;0.20;;;;;;;;;;4897190;29;20505;-89
2021/06/26 08:10:35;;;;;;;0.20;0.20;;;;;;;;;;4896001;29;20388;-89
2021/06/26 08:13:01;;;;;;;0.30;0.30;;;;;;;;;;4896011;29;20040;-88
2021/06/26 08:15:27;;;;;;;1.38;1.05;;;;;;;;;;4880236;29;20037;-89
2021/06/26 08:17:53;;;;;;;0.10;0.10;;;;;;;;;;4880341;29;20511;-89
2021/06/26 08:20:19;;;;;;;0.15;0.15;;;;;;;;;;4880339;29;20053;-89
2021/06/26 08:22:45;;;;;;;0.38;0.25;;;;;;;;;;4880387;29;20119;-89
2021/06/26 08:25:11;;;;;;;0.77;0.77;;;;;;;;;;4895645;29;20041;-89
2021/06/26 08:27:37;;;;;;;0.22;0.22;;;;;;;;;;4880047;29;20090;-88
2021/06/26 08:30:05;;;;;;;0.20;0.20;;;;;;;;;;4880169;29;20559;-89
2021/06/26 08:32:31;;;;;;;0.20;0.20;;;;;;;;;;4896477;29;20044;-89
2021/06/26 08:34:57;;;;;;;0.20;0.20;;;;;;;;;;4895429;29;20150;-89
2021/06/26 08:37:23;;;;;;;0.20;0.20;;;;;;;;;;4895373;29;20403;-87
2021/06/26 08:39:49;;;;;;;0.30;0.30;;;;;;;;;;4895442;29;20558;-87
2021/06/26 08:42:18;;;;;;;0.20;0.20;;;;;;;;;;4879969;29;20052;-87
2021/06/26 08:44:44;;;;;;;0.17;0.17;;;;;;;;;;4880011;29;20040;-87
2021/06/26 08:47:10;;;;;;;0.20;0.20;;;;;;;;;;4896355;29;20041;-87
2021/06/26 08:49:36;;;;;;;0.20;0.20;;;;;;;;;;4895282;29;20100;-88
2021/06/26 08:52:02;;;;;;;0.10;0.10;;;;;;;;;;4879723;29;20479;-87
2021/06/26 08:54:28;;;;;;;0.20;0.20;;;;;;;;;;4895252;29;20538;-88
2021/06/26 08:56:54;;;;;;;0.35;0.35;;;;;;;;;;4879856;29;20172;-88
2021/06/26 08:59:20;;;;;;;0.60;0.60;;;;;;;;;;4895482;29;20083;-87
2021/06/26 09:01:46;;;;;;;0.20;0.20;;;;;;;;;;4898107;29;20036;-87
2021/06/26 09:04:13;;;;;;;0.20;0.20;;;;;;;;;;4899048;29;20523;-87
2021/06/26 09:06:52;;;;;;;0.13;0.13;;;;;;;;;;4899148;29;20041;-88
2021/06/26 09:09:34;;;;;;;0.20;0.20;;;;;;;;;;4883448;29;20055;-88
2021/06/26 09:12:00;;;;;;;;;;;;;;;;;;4883440;29;20466;-88
2021/06/26 09:14:26;;;;;;;0.20;0.20;;;;;;;;;;4900257;29;19919;-88
2021/06/26 09:16:52;;;;;;;0.22;0.22;;;;;;;;;;4883395;29;20051;-87
2021/06/26 09:19:19;;;;;;;0.20;0.20;;;;;;;;;;4883049;29;20053;-88
2021/06/26 09:21:55;;;;;;;0.20;0.20;;;;;;;;;;4899884;29;20050;-88
2021/06/26 09:24:21;;;;;;;0.28;0.28;;;;;;;;;;4898745;29;20127;-88
2021/06/26 09:26:57;;;;;;;0.20;0.20;;;;;;;;;;4898516;29;20037;-88
2021/06/26 09:29:23;;;;;;;0.20;0.20;;;;;;;;;;4898669;29;20044;-87
2021/06/26 09:31:54;;;;;;;0.13;0.13;;;;;;;;;;4898549;29;20049;-87
2021/06/26 09:34:22;;;;;;;0.20;0.20;;;;;;;;;;4899721;29;20032;-88
2021/06/26 09:36:52;;;;;;;0.20;0.20;;;;;;;;;;4898299;29;20459;-88
2021/06/26 09:39:18;;;;;;;0.20;0.20;;;;;;;;;;4898272;29;20056;-88
2021/06/26 09:41:49;;;;;;;0.35;0.28;;;;;;;;;;4882946;29;20039;-87
2021/06/26 09:44:15;;;;;;;0.50;0.40;;;;;;;;;;4899694;29;20040;-88
2021/06/26 09:46:48;;;;;;;0.20;0.20;;;;;;;;;;4882860;29;20043;-88
2021/06/26 09:49:14;;;;;;;0.20;0.20;;;;;;;;;;4898312;29;20566;-87
2021/06/26 09:51:40;;;;;;;0.10;0.10;;;;;;;;;;4899318;29;20368;-88
2021/06/26 09:54:07;;;;;;;0.20;0.20;;;;;;;;;;4898318;29;20045;-88
2021/06/26 09:56:43;;;;;;;0.20;0.20;;;;;;;;;;4898078;29;20055;-87
2021/06/26 09:59:09;;;;;;;0.20;0.20;;;;;;;;;;4898091;29;20096;-88
2021/06/26 10:01:36;;;;;;;0.20;0.20;;;;;;;;;;4898264;29;20047;-87
2021/06/26 10:04:06;;;;;;;0.20;0.20;;;;;;;;;;4898206;29;20084;-88
2021/06/26 10:06:33;;;;;;;0.40;0.40;;;;;;;;;;4898087;29;20047;-88
2021/06/26 10:08:59;;;;;;;0.20;0.20;;;;;;;;;;4898084;29;20040;-87
2021/06/26 10:11:25;;;;;;;0.20;0.20;;;;;;;;;;4898135;29;20115;-87
2021/06/26 10:13:51;;;;;;;0.20;0.20;;;;;;;;;;4896870;29;20455;-87
2021/06/26 10:16:17;;;;;;;0.20;0.20;;;;;;;;;;4882421;29;20052;-87
2021/06/26 10:18:43;;;;;;;0.20;0.20;;;;;;;;;;4897407;29;20067;-88
2021/06/26 10:21:09;;;;;;;0.20;0.20;;;;;;;;;;4882126;29;20120;-87
2021/06/26 10:23:36;;;;;;;0.20;0.20;;;;;;;;;;4897868;29;20068;-87
2021/06/26 10:26:02;;;;;;;1.33;0.25;;;;;;;;;;4897914;29;20072;-88
2021/06/26 10:28:28;;;;;;;0.10;0.10;;;;;;;;;;4897598;29;20055;-87
2021/06/26 10:30:59;;;;;;;0.20;0.20;;;;;;;;;;4898713;29;20040;-88
2021/06/26 10:33:27;;;;;;;;;;;;;;;;;;4899033;29;20120;-88
2021/06/26 10:35:53;;;;;;;0.20;0.20;;;;;;;;;;4898581;29;19959;-88
2021/06/26 10:38:19;;;;;;;0.20;0.20;;;;;;;;;;4897239;29;20043;-87
2021/06/26 10:40:46;;;;;;;0.20;0.20;;;;;;;;;;4882064;29;20044;-87
2021/06/26 10:43:18;;;;;;;0.20;0.20;;;;;;;;;;4881849;29;20131;-89
2021/06/26 10:45:46;;;;;;;0.20;0.20;;;;;;;;;;4898563;29;20044;-88
2021/06/26 10:48:16;;;;;;;0.65;0.65;;;;;;;;;;4881880;29;20044;-88
2021/06/26 10:50:46;;;;;;;0.20;0.20;;;;;;;;;;4897230;29;20052;-87
2021/06/26 10:53:22;;;;;;;0.40;0.40;;;;;;;;;;4881585;29;20057;-88
2021/06/26 10:55:55;;;;;;;0.10;0.10;;;;;;;;;;4897141;29;20051;-88
2021/06/26 10:58:26;;;;;;;0.20;0.20;;;;;;;;;;4896879;29;20510;-88
2021/06/26 11:00:52;;;;;;;0.20;0.20;;;;;;;;;;4897077;29;20048;-87
2021/06/26 11:03:23;;;;;;;0.10;0.10;;;;;;;;;;4897221;29;20051;-88
2021/06/26 11:05:49;;;;;;;0.10;0.10;;;;;;;;;;4881659;29;20067;-87
2021/06/26 11:08:16;;;;;;;0.20;0.20;;;;;;;;;;4896891;29;20044;-88
2021/06/26 11:10:58;;;;;;;0.20;0.20;;;;;;;;;;4896953;29;20045;-88
2021/06/26 11:13:29;;;;;;;0.30;0.30;;;;;;;;;;4881377;29;20045;-88
2021/06/26 11:16:03;;;;;;;0.20;0.20;;;;;;;;;;4897935;29;20095;-88
2021/06/26 11:18:30;;;;;;;0.75;0.50;;;;;;;;;;4881039;29;20040;-88
2021/06/26 11:20:57;;;;;;;0.20;0.20;;;;;;;;;;4897929;29;20555;-88
2021/06/26 11:23:23;;;;;;;0.20;0.20;;;;;;;;;;4896773;29;20040;-88
2021/06/26 11:25:49;;;;;;;0.57;0.57;;;;;;;;;;4880969;29;20449;-88
2021/06/26 11:28:15;;;;;;;0.20;0.20;;;;;;;;;;4881228;29;20131;-88
2021/06/26 11:30:46;;;;;;;0.20;0.20;;;;;;;;;;4896529;29;20119;-88
2021/06/26 11:33:12;;;;;;;0.20;0.20;;;;;;;;;;4896463;29;20092;-88
2021/06/26 11:35:40;;;;;;;0.20;0.20;;;;;;;;;;4881029;29;20116;-87
2021/06/26 11:38:11;;;;;;;0.20;0.20;;;;;;;;;;4880716;29;20047;-87
2021/06/26 11:40:37;;;;;;;0.32;0.30;;;;;;;;;;4881131;29;20041;-87
2021/06/26 11:43:05;;;;;;;0.30;0.30;;;;;;;;;;4880873;29;20131;-88
2021/06/26 11:45:41;;;;;;;0.30;0.30;;;;;;;;;;4896416;29;20047;-88
2021/06/26 11:48:08;;;;;;;0.10;0.10;;;;;;;;;;4896153;29;20487;-87
2021/06/26 11:50:35;;;;;;;0.25;0.25;;;;;;;;;;4896327;29;20498;-87
2021/06/26 11:53:04;;;;;;;0.20;0.20;;;;;;;;;;4880998;29;20040;-87
2021/06/26 11:55:40;;;;;;;0.40;0.40;;;;;;;;;;4897514;29;20041;-88
2021/06/26 11:58:06;;;;;;;0.20;0.20;;;;;;;;;;4881170;29;20044;-89
2021/06/26 12:00:32;;;;;;;0.20;0.20;;;;;;;;;;4880847;29;20044;-87
2021/06/26 12:02:58;;;;;;;0.20;0.20;;;;;;;;;;4880422;29;20040;-88
2021/06/26 12:05:25;;;;;;;0.63;0.45;;;;;;;;;;4880688;29;20071;-88
2021/06/26 12:07:51;;;;;;;0.30;0.30;;;;;;;;;;4895845;29;20467;-87
2021/06/26 12:10:19;;;;;;;1.40;0.45;;;;;;;;;;4880615;29;20554;-87
2021/06/26 12:12:45;;;;;;;0.15;0.15;;;;;;;;;;4896935;29;20047;-87
2021/06/26 12:15:12;;;;;;;0.10;0.10;;;;;;;;;;4896061;29;20044;-88
2021/06/26 12:17:38;;;;;;;0.20;0.20;;;;;;;;;;4895532;29;20051;-88
2021/06/26 12:20:12;;;;;;;0.30;0.30;;;;;;;;;;4895829;29;20056;-87
2021/06/26 12:22:38;;;;;;;0.47;0.47;;;;;;;;;;4895796;29;20047;-88
2021/06/26 12:25:10;;;;;;;0.10;0.10;;;;;;;;;;4895743;29;20044;-88
2021/06/26 12:27:36;;;;;;;;;;;;;;;;;;4896160;29;20343;-88
2021/06/26 12:30:05;;;;;;;0.20;0.20;;;;;;;;;;4895645;29;19998;-88
2021/06/26 12:32:32;;;;;;;0.63;0.47;;;;;;;;;;4897577;29;20562;-88
2021/06/26 12:34:59;;;;;;;0.10;0.10;;;;;;;;;;4895523;29;20044;-88
2021/06/26 12:37:30;;;;;;;0.20;0.20;;;;;;;;;;4894826;29;20096;-87
2021/06/26 12:40:05;;;;;;;0.10;0.10;;;;;;;;;;4879870;29;20045;-88
2021/06/26 12:42:31;;;;;;;0.20;0.20;;;;;;;;;;4896487;29;20045;-87
2021/06/26 12:44:57;;;;;;;0.20;0.20;;;;;;;;;;4896577;29;20036;-87
2021/06/26 12:47:23;;;;;;;0.20;0.20;;;;;;;;;;4895779;29;20052;-88
2021/06/26 12:50:13;;;;;;;0.20;0.20;;;;;;;;;;4895370;29;20131;-88
2021/06/26 12:52:39;;;;;;;0.20;0.20;;;;;;;;;;4880939;29;20086;-89
2021/06/26 12:55:05;;;;;;;0.20;0.20;;;;;;;;;;4895468;29;20131;-88
2021/06/26 12:57:39;;;;;;;0.20;0.20;;;;;;;;;;4896281;29;20041;-88
2021/06/26 13:00:23;;;;;;;0.57;0.47;;;;;;;;;;4880190;29;20092;-88
2021/06/26 13:02:50;;;;;;;0.20;0.20;;;;;;;;;;4896616;29;20479;-88
2021/06/26 13:05:23;;;;;;;0.65;0.65;;;;;;;;;;4879641;29;20043;-89
2021/06/26 13:08:00;;;;;;;0.35;0.35;;;;;;;;;;4895332;29;20044;-89
2021/06/26 13:10:26;;;;;;;0.20;0.20;;;;;;;;;;4895395;29;20037;-88
2021/06/26 13:12:52;;;;;;;0.10;0.10;;;;;;;;;;4896255;29;20084;-89
2021/06/26 13:15:18;;;;;;;0.20;0.20;;;;;;;;;;4896437;29;20041;-88
2021/06/26 13:17:45;;;;;;;0.10;0.10;;;;;;;;;;4894939;29;20048;-88
2021/06/26 13:20:12;;;;;;;0.20;0.20;;;;;;;;;;4894790;29;20108;-88
2021/06/26 13:22:38;;;;;;;0.30;0.28;;;;;;;;;;4895288;29;20041;-88
2021/06/26 13:25:05;;;;;;;0.20;0.20;;;;;;;;;;4879681;29;20518;-88
2021/06/26 13:27:31;;;;;;;0.20;0.20;;;;;;;;;;4879351;29;20091;-88
2021/06/26 13:29:57;;;;;;;0.20;0.20;;;;;;;;;;4879729;29;20411;-88
2021/06/26 13:32:23;;;;;;;0.20;0.20;;;;;;;;;;4879607;29;20483;-88
2021/06/26 13:34:49;;;;;;;0.20;0.20;;;;;;;;;;4879721;29;20047;-88
2021/06/26 13:37:15;;;;;;;0.30;0.30;;;;;;;;;;4879077;29;20051;-88
2021/06/26 13:39:43;;;;;;;0.10;0.10;;;;;;;;;;4894943;29;20048;-88
2021/06/26 13:42:09;;;;;;;0.20;0.20;;;;;;;;;;4895054;29;20036;-88
2021/06/26 13:44:35;;;;;;;0.17;0.17;;;;;;;;;;4879474;29;20040;-88
2021/06/26 13:47:01;;;;;;;0.20;0.20;;;;;;;;;;4879800;29;20055;-88
2021/06/26 13:49:27;;;;;;;0.20;0.20;;;;;;;;;;4898956;29;20123;-88
2021/06/26 13:51:53;;;;;;;0.15;0.15;;;;;;;;;;4899030;29;20044;-88
2021/06/26 13:54:19;;;;;;;0.20;0.20;;;;;;;;;;4883875;29;20108;-88
2021/06/26 13:56:45;;;;;;;0.20;0.20;;;;;;;;;;4899470;29;20049;-88
2021/06/26 13:59:12;;;;;;;0.20;0.20;;;;;;;;;;4900685;29;20534;-89
2021/06/26 14:01:38;;;;;;;0.50;0.50;;;;;;;;;;4901881;29;20049;-88
2021/06/26 14:04:04;;;;;;;0.10;0.10;;;;;;;;;;4883516;29;20160;-88
2021/06/26 14:06:30;;;;;;;0.10;0.10;;;;;;;;;;4899114;29;20068;-89
2021/06/26 14:08:57;;;;;;;0.20;0.20;;;;;;;;;;4898877;29;20052;-89
2021/06/26 14:11:23;;;;;;;0.20;0.20;;;;;;;;;;4883643;29;20086;-89
2021/06/26 14:13:49;;;;;;;0.10;0.10;;;;;;;;;;4899318;29;20037;-88
2021/06/26 14:16:16;;;;;;;0.10;0.10;;;;;;;;;;4898881;29;20040;-89
2021/06/26 14:18:42;;;;;;;0.20;0.20;;;;;;;;;;4899940;29;20138;-89
2021/06/26 14:21:08;;;;;;;0.20;0.20;;;;;;;;;;4900802;29;20093;-88
2021/06/26 14:23:34;;;;;;;0.20;0.20;;;;;;;;;;4885084;29;20036;-88
2021/06/26 14:26:01;;;;;;;0.13;0.13;;;;;;;;;;4886745;29;20039;-88
2021/06/26 14:28:27;;;;;;;0.20;0.20;;;;;;;;;;4884559;29;20067;-89
2021/06/26 14:30:53;;;;;;;0.20;0.20;;;;;;;;;;4882695;29;20047;-88
2021/06/26 14:33:19;;;;;;;0.25;0.25;;;;;;;;;;4898917;29;20123;-89
2021/06/26 14:35:45;;;;;;;0.93;0.93;;;;;;;;;;4898182;29;20398;-88
2021/06/26 14:38:13;;;;;;;0.20;0.20;;;;;;;;;;4882946;29;20108;-88
2021/06/26 14:40:41;;;;;;;0.45;0.45;;;;;;;;;;4884188;29;20056;-88